createdAt,value
2023-02-22T00:01:41.401Z,2.67
2023-02-22T00:04:16.089Z,2.63
2023-02-22T00:06:56.388Z,2.62
2023-02-22T00:09:36.477Z,2.60
2023-02-22T00:12:16.403Z,2.59
2023-02-22T00:14:57.429Z,2.60
2023-02-22T00:17:30.713Z,2.62
2023-02-22T00:20:21.381Z,2.61
2023-02-22T00:22:54.553Z,2.59
2023-02-22T00:25:42.416Z,2.59
2023-02-22T00:28:15.490Z,2.58
2023-02-22T00:31:02.393Z,2.56
2023-02-22T00:33:43.405Z,2.51
2023-02-22T00:36:37.404Z,2.48
2023-02-22T00:39:31.432Z,2.43
2023-02-22T00:42:18.408Z,2.40
2023-02-22T00:44:51.508Z,2.37
2023-02-22T00:47:38.389Z,2.36
2023-02-22T00:50:12.510Z,2.35
2023-02-22T00:53:00.405Z,2.34
2023-02-22T00:55:43.402Z,2.35
2023-02-22T00:58:31.422Z,2.36
2023-02-22T01:01:11.440Z,2.36
2023-02-22T01:03:58.409Z,2.35
2023-02-22T01:06:38.442Z,2.37
2023-02-22T01:09:25.422Z,2.38
2023-02-22T01:12:09.424Z,2.39
2023-02-22T01:15:06.411Z,2.39
2023-02-22T01:17:53.695Z,2.39
2023-02-22T01:20:29.509Z,2.38
2023-02-22T01:23:17.561Z,2.39
2023-02-22T01:25:57.411Z,2.40
2023-02-22T01:28:52.416Z,2.40
2023-02-22T01:31:46.497Z,2.44
2023-02-22T01:34:33.460Z,2.45
2023-02-22T01:37:07.608Z,2.47
2023-02-22T01:39:54.400Z,2.50
2023-02-22T01:42:27.566Z,2.50
2023-02-22T01:45:41.515Z,2.49
2023-02-22T01:48:26.429Z,2.50
2023-02-22T01:51:27.436Z,2.49
2023-02-22T01:54:20.436Z,2.48
2023-02-22T01:57:15.430Z,2.49
2023-02-22T02:00:00.449Z,2.50
2023-02-22T02:02:59.481Z,2.50
2023-02-22T02:05:46.411Z,2.51
2023-02-22T02:08:39.524Z,2.51
2023-02-22T02:11:29.448Z,2.51
2023-02-22T02:14:11.437Z,2.51
2023-02-22T02:17:10.513Z,2.49
2023-02-22T02:20:15.428Z,2.49
2023-02-22T02:23:01.018Z,2.47
2023-02-22T02:26:10.438Z,2.47
2023-02-22T02:28:58.588Z,2.47
2023-02-22T02:32:00.639Z,2.47
2023-02-22T02:35:01.548Z,2.46
2023-02-22T02:38:23.468Z,2.45
2023-02-22T02:41:18.755Z,2.44
2023-02-22T02:44:42.530Z,2.46
2023-02-22T02:47:37.458Z,2.45
2023-02-22T02:50:20.592Z,2.44
2023-02-22T02:53:11.454Z,2.43
2023-02-22T02:55:51.435Z,2.43
2023-02-22T02:58:38.426Z,2.42
2023-02-22T03:01:18.805Z,2.40
2023-02-22T03:04:19.480Z,2.43
2023-02-22T03:07:14.495Z,2.43
2023-02-22T03:10:06.541Z,2.42
2023-02-22T03:13:15.484Z,2.43
2023-02-22T03:16:34.475Z,2.43
2023-02-22T03:19:31.479Z,2.40
2023-02-22T03:22:20.449Z,2.40
2023-02-22T03:25:49.459Z,2.39
2023-02-22T03:28:47.529Z,2.39
2023-02-22T03:31:51.514Z,2.40
2023-02-22T03:34:54.445Z,2.39
2023-02-22T03:37:54.453Z,2.39
2023-02-22T03:40:52.515Z,2.40
2023-02-22T03:43:45.466Z,2.42
2023-02-22T03:46:27.514Z,2.41
2023-02-22T03:49:24.465Z,2.41
2023-02-22T03:52:04.482Z,2.42
2023-02-22T03:54:51.475Z,2.43
2023-02-22T03:57:55.495Z,2.44
2023-02-22T04:00:51.472Z,2.45
2023-02-22T04:03:38.553Z,2.45
2023-02-22T04:06:22.511Z,2.44
2023-02-22T04:09:16.506Z,2.44
2023-02-22T04:12:18.516Z,2.44
2023-02-22T04:15:12.523Z,2.45
2023-02-22T04:18:06.478Z,2.46
2023-02-22T04:20:53.466Z,2.44
2023-02-22T04:23:27.014Z,2.45
2023-02-22T04:26:13.475Z,2.46
2023-02-22T04:28:46.566Z,2.46
2023-02-22T04:31:33.552Z,2.46
2023-02-22T04:34:07.567Z,2.45
2023-02-22T04:36:54.487Z,2.45
2023-02-22T04:39:35.523Z,2.44
2023-02-22T04:42:22.476Z,2.46
2023-02-22T04:45:02.512Z,2.43
2023-02-22T04:47:56.542Z,2.43
2023-02-22T04:50:43.501Z,2.44
2023-02-22T04:53:24.498Z,2.44
2023-02-22T04:56:11.499Z,2.42
2023-02-22T04:58:44.671Z,2.42
2023-02-22T05:01:31.485Z,2.42
2023-02-22T05:04:04.604Z,2.43
2023-02-22T05:06:52.737Z,2.41
2023-02-22T05:09:34.515Z,2.40
2023-02-22T05:12:28.505Z,2.38
2023-02-22T05:15:22.489Z,2.37
2023-02-22T05:18:09.494Z,2.38
2023-02-22T05:20:49.518Z,2.39
2023-02-22T05:23:43.509Z,2.39
2023-02-22T05:26:30.492Z,2.37
2023-02-22T05:29:03.659Z,2.38
2023-02-22T05:31:50.603Z,2.37
2023-02-22T05:34:30.486Z,2.36
2023-02-22T05:37:17.504Z,2.36
2023-02-22T05:39:51.026Z,2.35
2023-02-22T05:42:37.525Z,2.36
2023-02-22T05:45:10.633Z,2.37
2023-02-22T05:47:58.491Z,2.36
2023-02-22T05:50:39.520Z,2.38
2023-02-22T05:53:33.531Z,2.40
2023-02-22T05:56:20.525Z,2.39
2023-02-22T05:58:53.610Z,2.39
2023-02-22T06:01:40.657Z,2.39
2023-02-22T06:04:13.611Z,2.39
2023-02-22T06:07:00.540Z,2.40
2023-02-22T06:09:33.644Z,2.40
2023-02-22T06:12:20.548Z,2.42
2023-02-22T06:15:00.521Z,2.42
2023-02-22T06:17:48.512Z,2.42
2023-02-22T06:20:31.512Z,2.42
2023-02-22T06:23:18.520Z,2.44
2023-02-22T06:25:58.499Z,2.47
2023-02-22T06:28:45.532Z,2.50
2023-02-22T06:31:18.981Z,2.50
2023-02-22T06:34:05.538Z,2.51
2023-02-22T06:36:45.520Z,2.50
2023-02-22T06:39:32.518Z,2.52
2023-02-22T06:42:06.688Z,2.54
2023-02-22T06:44:53.524Z,2.56
2023-02-22T06:47:33.587Z,2.58
2023-02-22T06:50:30.524Z,2.59
2023-02-22T06:53:04.706Z,2.63
2023-02-22T06:55:51.561Z,2.65
2023-02-22T06:58:31.530Z,2.68
2023-02-22T07:01:19.831Z,2.71
2023-02-22T07:03:55.662Z,2.75
2023-02-22T07:06:42.544Z,2.74
2023-02-22T07:09:22.554Z,2.78
2023-02-22T07:12:09.525Z,2.80
2023-02-22T07:14:42.700Z,2.84
2023-02-22T07:17:29.536Z,2.86
2023-02-22T07:20:09.562Z,2.88
2023-02-22T07:23:03.556Z,2.88
2023-02-22T07:25:50.534Z,2.88
2023-02-22T07:28:23.652Z,2.89
2023-02-22T07:31:11.551Z,2.89
2023-02-22T07:33:44.662Z,2.91
2023-02-22T07:36:31.555Z,2.91
2023-02-22T07:39:04.675Z,2.94
2023-02-22T07:41:51.570Z,2.95
2023-02-22T07:44:24.638Z,2.99
2023-02-22T07:47:11.583Z,3.02
2023-02-22T07:49:51.546Z,3.08
2023-02-22T07:52:38.573Z,3.12
2023-02-22T07:55:13.274Z,3.17
2023-02-22T07:58:01.549Z,3.22
2023-02-22T08:00:47.585Z,3.26
2023-02-22T08:03:45.573Z,3.28
2023-02-22T08:06:32.564Z,3.30
2023-02-22T08:09:05.667Z,3.29
2023-02-22T08:11:52.587Z,3.35
2023-02-22T08:14:25.676Z,3.38
2023-02-22T08:17:12.595Z,3.41
2023-02-22T08:19:45.673Z,3.43
2023-02-22T08:22:34.555Z,3.47
2023-02-22T08:25:07.682Z,3.52
2023-02-22T08:27:55.572Z,3.58
2023-02-22T08:30:39.720Z,3.65
2023-02-22T08:33:28.568Z,3.73
2023-02-22T08:36:01.946Z,3.78
2023-02-22T08:38:48.575Z,3.83
2023-02-22T08:41:28.568Z,3.87
2023-02-22T08:44:22.578Z,3.91
2023-02-22T08:47:09.586Z,3.88
2023-02-22T08:49:42.665Z,3.87
2023-02-22T08:52:29.579Z,3.90
2023-02-22T08:55:09.576Z,3.97
2023-02-22T08:58:03.629Z,4.08
2023-02-22T09:00:57.581Z,4.19
2023-02-22T09:03:44.667Z,4.25
2023-02-22T09:06:17.752Z,4.30
2023-02-22T09:09:04.577Z,4.30
2023-02-22T09:11:37.687Z,4.33
2023-02-22T09:14:24.565Z,4.39
2023-02-22T09:16:57.685Z,4.44
2023-02-22T09:19:44.578Z,4.46
2023-02-22T09:22:24.582Z,4.49
2023-02-22T09:25:21.581Z,4.45
2023-02-22T09:28:16.592Z,4.43
2023-02-22T09:31:03.595Z,4.46
2023-02-22T09:33:36.689Z,4.44
2023-02-22T09:36:25.188Z,4.42
2023-02-22T09:39:06.588Z,4.26
2023-02-22T09:42:05.584Z,4.23
2023-02-22T09:45:01.605Z,4.17
2023-02-22T09:48:15.241Z,4.16
2023-02-22T09:51:05.590Z,4.21
2023-02-22T09:53:50.631Z,4.28
2023-02-22T09:56:26.715Z,4.29
2023-02-22T09:59:18.616Z,4.41
2023-02-22T10:02:03.574Z,4.50
2023-02-22T10:04:59.619Z,4.58
2023-02-22T10:07:39.715Z,4.65
2023-02-22T10:10:29.610Z,4.65
2023-02-22T10:13:19.722Z,4.73
2023-02-22T10:16:13.711Z,4.76
2023-02-22T10:19:14.824Z,4.75
2023-02-22T10:22:11.646Z,4.74
2023-02-22T10:25:02.609Z,4.73
2023-02-22T10:28:04.595Z,4.77
2023-02-22T10:31:03.803Z,4.82
2023-02-22T10:33:41.744Z,4.87
2023-02-22T10:36:31.634Z,4.94
2023-02-22T10:39:32.743Z,4.94
2023-02-22T10:42:19.657Z,5.03
2023-02-22T10:44:52.713Z,5.13
2023-02-22T10:47:40.611Z,5.23
2023-02-22T10:50:14.763Z,5.32
2023-02-22T10:53:01.632Z,5.34
2023-02-22T10:55:42.642Z,5.27
2023-02-22T10:58:36.635Z,5.15
2023-02-22T11:01:47.759Z,5.03
2023-02-22T11:04:41.624Z,4.97
2023-02-22T11:07:49.645Z,4.86
2023-02-22T11:10:45.661Z,4.92
2023-02-22T11:13:39.634Z,4.95
2023-02-22T11:16:49.673Z,5.00
2023-02-22T11:19:45.622Z,5.09
2023-02-22T11:22:47.671Z,5.10
2023-02-22T11:25:27.841Z,5.12
2023-02-22T11:28:37.629Z,5.16
2023-02-22T11:31:30.656Z,5.17
2023-02-22T11:34:41.648Z,5.12
2023-02-22T11:37:35.636Z,5.10
2023-02-22T11:40:36.653Z,5.07
2023-02-22T11:43:25.653Z,5.06
2023-02-22T11:46:05.890Z,5.10
2023-02-22T11:49:02.673Z,5.14
2023-02-22T11:52:20.720Z,5.17
2023-02-22T11:55:42.662Z,5.12
2023-02-22T11:58:50.630Z,5.10
2023-02-22T12:02:01.686Z,5.09
2023-02-22T12:05:00.767Z,5.15
2023-02-22T12:07:42.768Z,5.23
2023-02-22T12:10:53.656Z,5.27
2023-02-22T12:14:14.654Z,5.32
2023-02-22T12:17:26.655Z,5.35
2023-02-22T12:20:22.087Z,5.38
2023-02-22T12:23:38.652Z,5.33
2023-02-22T12:26:30.676Z,5.31
2023-02-22T12:29:45.642Z,5.27
2023-02-22T12:32:39.692Z,5.19
2023-02-22T12:35:35.667Z,5.08
2023-02-22T12:38:43.667Z,5.00
2023-02-22T12:41:44.660Z,4.94
2023-02-22T12:44:37.645Z,4.85
2023-02-22T12:47:39.721Z,4.84
2023-02-22T12:50:29.680Z,4.84
2023-02-22T12:53:26.667Z,4.88
2023-02-22T12:57:04.665Z,4.91
2023-02-22T13:00:02.692Z,4.98
2023-02-22T13:03:09.754Z,4.99
2023-02-22T13:06:07.683Z,4.98
2023-02-22T13:08:49.681Z,5.01
2023-02-22T13:12:06.712Z,5.08
2023-02-22T13:14:47.887Z,5.14
2023-02-22T13:18:01.483Z,5.20
2023-02-22T13:20:58.687Z,5.26
2023-02-22T13:24:12.703Z,5.33
2023-02-22T13:26:50.130Z,5.39
2023-02-22T13:29:43.685Z,5.47
2023-02-22T13:32:19.965Z,5.51
2023-02-22T13:35:29.685Z,5.59
2023-02-22T13:38:37.781Z,5.61
2023-02-22T13:41:57.679Z,5.60
2023-02-22T13:44:43.850Z,5.58
2023-02-22T13:47:48.702Z,5.54
2023-02-22T13:50:30.818Z,5.49
2023-02-22T13:53:22.687Z,5.50
2023-02-22T13:56:01.787Z,5.50
2023-02-22T13:58:57.704Z,5.43
2023-02-22T14:01:59.731Z,5.39
2023-02-22T14:04:48.708Z,5.37
2023-02-22T14:07:36.695Z,5.38
2023-02-22T14:10:59.722Z,5.34
2023-02-22T14:14:07.685Z,5.29
2023-02-22T14:16:40.839Z,5.27
2023-02-22T14:19:29.709Z,5.24
2023-02-22T14:22:08.727Z,5.21
2023-02-22T14:24:57.707Z,5.17
2023-02-22T14:27:30.786Z,5.15
2023-02-22T14:30:49.721Z,5.11
2023-02-22T14:34:04.730Z,5.13
2023-02-22T14:37:11.713Z,5.08
2023-02-22T14:40:05.731Z,5.04
2023-02-22T14:42:45.935Z,4.98
2023-02-22T14:45:56.747Z,4.96
2023-02-22T14:48:50.725Z,4.98
2023-02-22T14:51:46.707Z,4.95
2023-02-22T14:54:30.839Z,4.94
2023-02-22T14:57:30.813Z,4.88
2023-02-22T15:00:47.702Z,4.85
2023-02-22T15:03:51.395Z,4.78
2023-02-22T15:06:42.710Z,4.73
2023-02-22T15:09:33.634Z,4.66
2023-02-22T15:12:42.715Z,4.64
2023-02-22T15:15:37.732Z,4.63
2023-02-22T15:18:29.715Z,4.59
2023-02-22T15:21:13.424Z,4.52
2023-02-22T15:24:13.850Z,4.47
2023-02-22T15:27:02.068Z,4.37
2023-02-22T15:29:51.731Z,4.33
2023-02-22T15:32:34.480Z,4.29
2023-02-22T15:35:20.749Z,4.22
2023-02-22T15:38:00.752Z,4.19
2023-02-22T15:40:56.739Z,4.16
2023-02-22T15:43:44.734Z,4.13
2023-02-22T15:46:24.723Z,4.11
2023-02-22T15:49:31.746Z,4.08
2023-02-22T15:52:38.731Z,4.02
2023-02-22T15:55:28.760Z,4.02
2023-02-22T15:58:21.734Z,4.00
2023-02-22T16:01:22.781Z,3.96
2023-02-22T16:04:18.797Z,3.93
2023-02-22T16:07:23.758Z,3.89
2023-02-22T16:10:05.742Z,3.88
2023-02-22T16:12:52.740Z,3.88
2023-02-22T16:15:32.763Z,3.85
2023-02-22T16:18:47.752Z,3.82
2023-02-22T16:22:19.842Z,3.80
2023-02-22T16:24:52.850Z,3.76
2023-02-22T16:27:53.759Z,3.72
2023-02-22T16:30:35.008Z,3.70
2023-02-22T16:33:22.770Z,3.68
2023-02-22T16:36:03.813Z,3.65
2023-02-22T16:38:58.757Z,3.62
2023-02-22T16:41:45.975Z,3.59
2023-02-22T16:44:26.746Z,3.58
2023-02-22T16:47:17.768Z,3.53
2023-02-22T16:49:57.110Z,3.51
2023-02-22T16:52:46.790Z,3.49
2023-02-22T16:55:21.885Z,3.45
2023-02-22T16:58:10.752Z,3.43
2023-02-22T17:00:43.861Z,3.40
2023-02-22T17:03:32.771Z,3.39
2023-02-22T17:06:05.878Z,3.34
2023-02-22T17:08:52.782Z,3.31
2023-02-22T17:11:26.845Z,3.30
2023-02-22T17:14:13.777Z,3.28
2023-02-22T17:16:53.752Z,3.26
2023-02-22T17:19:40.778Z,3.24
2023-02-22T17:22:13.860Z,3.23
2023-02-22T17:25:00.774Z,3.19
2023-02-22T17:27:33.867Z,3.18
2023-02-22T17:30:24.169Z,3.16
2023-02-22T17:33:09.772Z,3.15
2023-02-22T17:35:56.787Z,3.13
2023-02-22T17:38:30.905Z,3.13
2023-02-22T17:41:17.773Z,3.10
2023-02-22T17:43:57.762Z,3.09
2023-02-22T17:46:46.789Z,3.07
2023-02-22T17:49:19.903Z,3.05
2023-02-22T17:52:06.787Z,3.04
2023-02-22T17:54:39.882Z,3.03
2023-02-22T17:57:26.813Z,3.02
2023-02-22T17:59:59.929Z,3.00
2023-02-22T18:02:47.859Z,2.96
2023-02-22T18:05:27.801Z,2.95
2023-02-22T18:08:21.766Z,2.91
2023-02-22T18:11:11.817Z,2.87
2023-02-22T18:13:51.772Z,2.85
2023-02-22T18:16:45.789Z,2.81
2023-02-22T18:19:39.797Z,2.78
2023-02-22T18:22:26.778Z,2.75
2023-02-22T18:25:01.917Z,2.72
2023-02-22T18:27:51.781Z,2.69
2023-02-22T18:30:25.994Z,2.66
2023-02-22T18:33:13.821Z,2.64
2023-02-22T18:35:52.557Z,2.62
2023-02-22T18:38:38.790Z,2.63
2023-02-22T18:41:12.951Z,2.63
2023-02-22T18:44:01.947Z,2.59
2023-02-22T18:46:34.923Z,2.54
2023-02-22T18:49:21.797Z,2.47
2023-02-22T18:52:01.790Z,2.40
2023-02-22T18:54:49.798Z,2.30
2023-02-22T18:57:23.000Z,2.24
2023-02-22T19:00:10.807Z,2.18
2023-02-22T19:02:50.845Z,2.13
2023-02-22T19:05:44.917Z,2.12
2023-02-22T19:08:24.798Z,2.05
2023-02-22T19:11:11.846Z,1.99
2023-02-22T19:13:47.747Z,1.93
2023-02-22T19:16:34.911Z,1.85
2023-02-22T19:19:11.915Z,1.80
2023-02-22T19:21:58.808Z,1.75
2023-02-22T19:24:38.810Z,1.71
2023-02-22T19:27:25.814Z,1.66
2023-02-22T19:30:05.826Z,1.63
2023-02-22T19:32:59.824Z,1.59
2023-02-22T19:35:54.852Z,1.55
2023-02-22T19:38:30.978Z,1.53
2023-02-22T19:41:25.807Z,1.50
2023-02-22T19:44:06.834Z,1.46
2023-02-22T19:46:53.820Z,1.39
2023-02-22T19:49:34.834Z,1.36
2023-02-22T19:52:28.856Z,1.35
2023-02-22T19:55:20.843Z,1.29
2023-02-22T19:57:53.942Z,1.26
2023-02-22T20:00:41.818Z,1.21
2023-02-22T20:03:16.100Z,1.16
2023-02-22T20:06:05.818Z,1.12
2023-02-22T20:08:48.800Z,1.08
2023-02-22T20:11:42.835Z,1.05
2023-02-22T20:14:34.847Z,1.00
2023-02-22T20:17:16.860Z,0.92
2023-02-22T20:20:11.818Z,0.87
2023-02-22T20:22:59.827Z,0.82
2023-02-22T20:25:41.840Z,0.76
2023-02-22T20:28:36.874Z,0.72
2023-02-22T20:31:31.916Z,0.68
2023-02-22T20:34:18.853Z,0.64
2023-02-22T20:36:52.541Z,0.62
2023-02-22T20:39:38.845Z,0.60
2023-02-22T20:42:18.977Z,0.57
2023-02-22T20:45:12.851Z,0.52
2023-02-22T20:48:00.849Z,0.49
2023-02-22T20:50:36.942Z,0.47
2023-02-22T20:53:23.851Z,0.46
2023-02-22T20:55:59.245Z,0.47
2023-02-22T20:58:45.884Z,0.48
2023-02-22T21:01:28.906Z,0.45
2023-02-22T21:04:23.896Z,0.43
2023-02-22T21:07:10.880Z,0.39
2023-02-22T21:09:43.972Z,0.39
2023-02-22T21:12:30.856Z,0.37
2023-02-22T21:15:04.019Z,0.36
2023-02-22T21:17:53.848Z,0.33
2023-02-22T21:20:26.980Z,0.29
2023-02-22T21:23:14.885Z,0.28
2023-02-22T21:26:01.217Z,0.23
2023-02-22T21:28:51.723Z,0.22
2023-02-22T21:31:27.165Z,0.18
2023-02-22T21:34:18.878Z,0.16
2023-02-22T21:36:53.386Z,0.14
2023-02-22T21:39:39.921Z,0.12
2023-02-22T21:42:19.874Z,0.10
2023-02-22T21:45:06.859Z,0.08
2023-02-22T21:47:46.881Z,0.06
2023-02-22T21:50:43.860Z,0.04
2023-02-22T21:53:30.868Z,0.02
2023-02-22T21:56:16.868Z,0.02
2023-02-22T21:59:36.899Z,0.01
2023-02-22T22:02:30.916Z,-0.01
2023-02-22T22:05:20.974Z,-0.05
2023-02-22T22:08:00.877Z,-0.07
2023-02-22T22:10:47.873Z,-0.11
2023-02-22T22:13:21.035Z,-0.11
2023-02-22T22:16:14.975Z,-0.12
2023-02-22T22:19:08.921Z,-0.12
2023-02-22T22:22:02.978Z,-0.14
2023-02-22T22:24:51.937Z,-0.17
2023-02-22T22:27:24.986Z,-0.20
2023-02-22T22:30:12.874Z,-0.20
2023-02-22T22:32:52.879Z,-0.20
2023-02-22T22:35:39.870Z,-0.21
2023-02-22T22:38:20.898Z,-0.21
2023-02-22T22:41:14.890Z,-0.24
2023-02-22T22:44:02.905Z,-0.26
2023-02-22T22:46:36.441Z,-0.29
2023-02-22T22:49:22.888Z,-0.29
2023-02-22T22:51:55.999Z,-0.30
2023-02-22T22:54:43.899Z,-0.30
2023-02-22T22:57:18.018Z,-0.31
2023-02-22T23:00:04.895Z,-0.29
2023-02-22T23:02:44.966Z,-0.26
2023-02-22T23:05:34.919Z,-0.28
2023-02-22T23:08:16.935Z,-0.26
2023-02-22T23:11:03.926Z,-0.26
2023-02-22T23:13:43.892Z,-0.26
2023-02-22T23:16:38.894Z,-0.29
2023-02-22T23:19:26.909Z,-0.32
2023-02-22T23:22:06.912Z,-0.35
2023-02-22T23:25:00.928Z,-0.39
2023-02-22T23:27:48.904Z,-0.39
2023-02-22T23:30:25.124Z,-0.36
2023-02-22T23:33:11.947Z,-0.39
2023-02-22T23:35:45.073Z,-0.39
2023-02-22T23:38:31.982Z,-0.39
2023-02-22T23:41:20.272Z,-0.33
2023-02-22T23:44:06.939Z,-0.32
2023-02-22T23:46:44.698Z,-0.30
2023-02-22T23:49:33.980Z,-0.28
2023-02-22T23:52:13.934Z,-0.28
2023-02-22T23:55:11.933Z,-0.30
2023-02-22T23:57:58.959Z,-0.30
